KBOIKSUN

Guest
Details From KBOI - Boise Air Terminal (Gowen Field)
To KSUN - FRIEDMAN MEM
Flight Number -
Tags generated
Created
Modified
Stats Distance 84 nm / 155 km
Max Altitude 300 ft / 91 m
Waypoints 3
Social Downloads 0
Likes 0
Share VATSIM

Download

Looking for another format? Having issues loading an existing format? Contact us
Advertisement - Login to hide

Notes

Basic altitude profile: - Ascent Rate: 2500ft/min - Ascent Speed: 250kts - Cruise Altitude: 35000ft - Cruise Speed: 420kts - Descent Rate: 1500ft/min - Descent Speed: 250kts Options: - Use NATs: yes - Use PACOTS: no - Use low airways: yes - Use high airways: no

Route

KBOI BOI KSUN

ID Type Via Altitude Latitude Longitude Leg Dist Tot Dist Heading (true) Name
O KBOI APT - 0 ft / 0 m 43.55624˚ -116.21495˚ - 0 nm - Boise Air Terminal (Gowen Field)
BOI VOR - 300 ft / 91 m 43.55281˚ -116.19214˚ 1 nm 1 nm 102° / 102° BOISE VORTAC
O KSUN APT - 0 ft / 0 m 43.50445˚ -114.29621˚ 82 nm 83 nm 91° / 93° FRIEDMAN MEM

Altitude Profile

Advertisement - Login to hide

KBOI

Details ICAO KBOI (BOI)
Name Boise Air Terminal (Gowen Field)
Region United States
Timezone America/Boise (UTC-7.0)
Stats Elevation 2,871 ft / 875 m (AMSL)
Location 43.556241° -116.214953°
Runways 3
Magnetic Variation 13.354° E

METAR

KBOI 170953Z 00000KT 10SM CLR M07/M09 A3025 RMK AO2 SLP270 T10721094

Decode

TAF

KBOI 170853Z 1709/1806 VRB03KT P6SM SKC FM171800 VRB04KT P6SM BKN250

Decode

Departure Runways

ID Width Length Bearing (true) Bearing (mag) Surface Threshold Offset Overrun Length
09 75 ft / 23 m 4,989 ft / 1,521 m 105.05° 91.70° Asphalt 0 ft / 0 m 200 ft / 61 m
10L 150 ft / 46 m 9,981 ft / 3,042 m 115.21° 101.86° Asphalt 0 ft / 0 m 0 ft / 0 m
10R 150 ft / 46 m 9,745 ft / 2,970 m 115.20° 101.85° Asphalt 0 ft / 0 m 200 ft / 61 m
27 75 ft / 23 m 4,989 ft / 1,521 m 285.06° 271.71° Asphalt 0 ft / 0 m 0 ft / 0 m
28L 150 ft / 46 m 9,745 ft / 2,970 m 295.23° 281.88° Asphalt 0 ft / 0 m 200 ft / 61 m
28R 150 ft / 46 m 9,981 ft / 3,042 m 295.23° 281.88° Asphalt 0 ft / 0 m 200 ft / 61 m

KSUN

Details ICAO KSUN (SUN)
Name FRIEDMAN MEM
Region United States
Timezone America/Boise (UTC-7.0)
Stats Elevation 5,320 ft / 1,622 m (AMSL)
Location 43.504452° -114.296209°
Runways 1
Magnetic Variation 12.734° E

METAR

KSUN 171035Z AUTO 31006KT 10SM CLR M09/M10 A3014 RMK AO2

Decode

TAF

KSUN 170923Z 1709/1812 31006KT P6SM SKC FM171800 14006KT P6SM FEW025 BKN070 BKN180 FM180200 31006KT P6SM BKN040 BKN110 AMD LTD TO CLD VIS AND WIND TIL 171400

Decode

Destination Runways

ID Width Length Bearing (true) Bearing (mag) Surface Threshold Offset Overrun Length
13 100 ft / 30 m 6,949 ft / 2,118 m 144.87° 132.14° Asphalt 1,501 ft / 458 m 0 ft / 0 m
31 100 ft / 30 m 6,949 ft / 2,118 m 324.88° 312.15° Asphalt 0 ft / 0 m 0 ft / 0 m

Popular Alternatives